Time;durP1;ratioP1;P1;durP2;ratioP2;P2;SDS_P1;SDS_P2;PMS_P1;PMS_P2;Temp;Humidity;BMP_temperature;BMP_pressure;BME280_temperature;BME280_humidity;BME280_pressure;Samples;Min_cycle;Max_cycle;Signal;HPM_P1;HPM_P2
2022/03/31 00:00:30;;;;;;;10.80;8.37;;;;;;;;;;4975614;28;20193;-61
2022/03/31 00:02:56;;;;;;;11.40;9.00;;;;;;;;;;4979408;28;20231;-62
2022/03/31 00:05:22;;;;;;;10.87;9.10;;;;;;;;;;4983417;28;20225;-62
2022/03/31 00:07:49;;;;;;;12.23;9.43;;;;;;;;;;4977523;28;20281;-63
2022/03/31 00:10:18;;;;;;;10.53;8.80;;;;;;;;;;4980893;28;20663;-61
2022/03/31 00:12:44;;;;;;;14.03;9.43;;;;;;;;;;4978832;28;20599;-62
2022/03/31 00:15:10;;;;;;;12.43;9.30;;;;;;;;;;4987712;28;20198;-62
2022/03/31 00:17:36;;;;;;;12.17;9.07;;;;;;;;;;4979204;28;21034;-60
2022/03/31 00:20:03;;;;;;;10.60;9.50;;;;;;;;;;4980231;28;20204;-62
2022/03/31 00:34:43;;;;;;;10.33;9.30;;;;;;;;;;4989502;28;20186;-62
2022/03/31 00:37:28;;;;;;;12.40;9.97;;;;;;;;;;4986471;28;20183;-62
2022/03/31 00:39:55;;;;;;;14.60;10.10;;;;;;;;;;4990275;28;20264;-62
2022/03/31 00:42:21;;;;;;;12.93;10.00;;;;;;;;;;4985150;28;25269;-62
2022/03/31 00:44:47;;;;;;;14.00;11.10;;;;;;;;;;4977624;28;20468;-62
2022/03/31 00:47:13;;;;;;;14.17;10.30;;;;;;;;;;4971130;28;20190;-61
2022/03/31 00:49:39;;;;;;;12.70;10.37;;;;;;;;;;4968948;28;20261;-61
2022/03/31 00:52:05;;;;;;;14.40;10.60;;;;;;;;;;4980158;28;20190;-62
2022/03/31 00:54:32;;;;;;;15.17;11.43;;;;;;;;;;4977241;28;20744;-62
2022/03/31 00:56:58;;;;;;;12.10;10.03;;;;;;;;;;4974670;28;20190;-62
2022/03/31 00:59:24;;;;;;;12.87;10.70;;;;;;;;;;4972651;28;21099;-62
2022/03/31 01:01:51;;;;;;;16.53;11.60;;;;;;;;;;4973534;28;20712;-61
2022/03/31 01:09:22;;;;;;;16.10;11.77;;;;;;;;;;4926104;28;20577;-61
2022/03/31 01:11:48;;;;;;;14.03;10.93;;;;;;;;;;4936035;28;21039;-61
2022/03/31 01:14:15;;;;;;;13.80;11.13;;;;;;;;;;4947349;28;20287;-59
2022/03/31 01:16:41;;;;;;;14.13;11.70;;;;;;;;;;4946524;28;20195;-61
2022/03/31 01:19:08;;;;;;;13.53;12.17;;;;;;;;;;4932249;28;20191;-61
2022/03/31 01:21:40;;;;;;;14.53;12.37;;;;;;;;;;4941914;28;20195;-61
2022/03/31 01:24:07;;;;;;;13.43;11.50;;;;;;;;;;4942111;28;20215;-62
2022/03/31 01:26:34;;;;;;;13.00;11.37;;;;;;;;;;4947512;28;20226;-61
2022/03/31 01:29:00;;;;;;;14.63;12.07;;;;;;;;;;4943456;28;20504;-62
2022/03/31 01:31:26;;;;;;;13.73;12.13;;;;;;;;;;4946504;28;20250;-61
2022/03/31 01:33:53;;;;;;;13.93;11.57;;;;;;;;;;4944604;28;20199;-61
2022/03/31 01:36:19;;;;;;;14.37;12.10;;;;;;;;;;4943044;28;20563;-61
2022/03/31 01:38:45;;;;;;;14.83;11.83;;;;;;;;;;4946710;28;20206;-62
2022/03/31 01:41:11;;;;;;;15.03;12.00;;;;;;;;;;4943929;28;20202;-61
2022/03/31 01:43:37;;;;;;;12.87;11.47;;;;;;;;;;4945553;28;20252;-61
2022/03/31 01:46:03;;;;;;;15.13;12.43;;;;;;;;;;4936652;28;20209;-61
2022/03/31 01:48:30;;;;;;;15.50;12.53;;;;;;;;;;4944532;28;20191;-60
2022/03/31 01:50:56;;;;;;;13.80;12.40;;;;;;;;;;4941945;28;20309;-61
2022/03/31 01:53:22;;;;;;;13.43;12.03;;;;;;;;;;4941369;28;20196;-61
2022/03/31 01:55:48;;;;;;;16.00;11.83;;;;;;;;;;4937074;28;20191;-61
2022/03/31 01:58:14;;;;;;;14.30;12.80;;;;;;;;;;4931423;28;20234;-61
2022/03/31 02:00:40;;;;;;;19.40;13.27;;;;;;;;;;4935235;28;21029;-61
2022/03/31 02:03:06;;;;;;;15.23;12.60;;;;;;;;;;4939065;28;20207;-61
2022/03/31 02:05:32;;;;;;;16.70;12.50;;;;;;;;;;4929893;28;20299;-61
2022/03/31 02:07:58;;;;;;;15.20;12.30;;;;;;;;;;4918904;28;20231;-61
2022/03/31 02:10:27;;;;;;;17.63;12.30;;;;;;;;;;4902111;28;20203;-61
2022/03/31 02:12:54;;;;;;;14.00;12.50;;;;;;;;;;4913348;28;20202;-61
2022/03/31 02:15:20;;;;;;;15.17;13.57;;;;;;;;;;4912144;28;20196;-61
2022/03/31 02:17:46;;;;;;;16.20;12.73;;;;;;;;;;4922340;28;20670;-61
2022/03/31 02:20:12;;;;;;;18.80;13.33;;;;;;;;;;4923165;28;20676;-61
2022/03/31 02:22:39;;;;;;;16.17;13.53;;;;;;;;;;4923989;28;20784;-61
2022/03/31 02:25:08;;;;;;;15.63;12.87;;;;;;;;;;4920866;28;20813;-61
2022/03/31 02:27:34;;;;;;;14.60;12.93;;;;;;;;;;4926563;28;20188;-61
2022/03/31 02:30:00;;;;;;;19.17;14.00;;;;;;;;;;4926904;28;20188;-61
2022/03/31 02:32:25;;;;;;;15.17;13.57;;;;;;;;;;4926236;28;20188;-62
2022/03/31 02:34:52;;;;;;;16.80;13.20;;;;;;;;;;4927782;28;20965;-62
2022/03/31 02:37:18;;;;;;;19.63;13.93;;;;;;;;;;4932615;28;20204;-61
2022/03/31 02:39:43;;;;;;;19.37;13.73;;;;;;;;;;4926978;28;20192;-61
2022/03/31 02:42:09;;;;;;;17.00;13.87;;;;;;;;;;4921779;28;20286;-61
2022/03/31 02:44:35;;;;;;;18.23;15.00;;;;;;;;;;4924900;28;20332;-61
2022/03/31 02:47:01;;;;;;;20.03;14.43;;;;;;;;;;4921785;28;20621;-61
2022/03/31 02:49:27;;;;;;;17.97;14.00;;;;;;;;;;4924279;28;20972;-62
2022/03/31 02:51:53;;;;;;;20.77;15.33;;;;;;;;;;4921362;28;20192;-61
2022/03/31 02:57:04;;;;;;;16.73;14.83;;;;;;;;;;4919882;28;20963;-61
2022/03/31 02:59:30;;;;;;;19.13;15.00;;;;;;;;;;4927818;28;20203;-60
2022/03/31 03:01:57;;;;;;;17.77;15.03;;;;;;;;;;4921856;28;20195;-61
2022/03/31 03:04:24;;;;;;;17.80;15.70;;;;;;;;;;4919784;28;20248;-61
2022/03/31 03:06:50;;;;;;;22.47;15.47;;;;;;;;;;4918516;28;20310;-60
2022/03/31 03:09:16;;;;;;;19.93;15.27;;;;;;;;;;4923367;28;21317;-61
2022/03/31 03:11:41;;;;;;;19.77;15.43;;;;;;;;;;4928105;28;20196;-61
2022/03/31 03:14:11;;;;;;;17.57;15.27;;;;;;;;;;4912680;28;20246;-61
2022/03/31 03:16:38;;;;;;;17.67;14.47;;;;;;;;;;4907086;28;20326;-62
2022/03/31 03:19:03;;;;;;;18.60;15.23;;;;;;;;;;4911865;28;20214;-61
2022/03/31 03:21:29;;;;;;;18.67;15.43;;;;;;;;;;4914240;28;20232;-61
2022/03/31 03:23:55;;;;;;;19.77;15.67;;;;;;;;;;4917388;28;20220;-62
2022/03/31 03:26:21;;;;;;;18.30;15.23;;;;;;;;;;4920526;28;20565;-61
2022/03/31 03:28:47;;;;;;;17.80;15.37;;;;;;;;;;4927405;28;20258;-61
2022/03/31 03:31:13;;;;;;;20.37;16.20;;;;;;;;;;4929254;28;20191;-61
2022/03/31 03:33:39;;;;;;;18.43;15.83;;;;;;;;;;4924805;28;20267;-59
2022/03/31 03:36:08;;;;;;;19.47;16.00;;;;;;;;;;4927948;28;20279;-61
2022/03/31 03:38:34;;;;;;;18.73;15.90;;;;;;;;;;4925028;28;20208;-62
2022/03/31 03:41:00;;;;;;;17.07;15.30;;;;;;;;;;4932253;28;20561;-61
2022/03/31 03:43:26;;;;;;;18.33;15.37;;;;;;;;;;4929823;28;20227;-60
2022/03/31 03:45:52;;;;;;;21.67;16.40;;;;;;;;;;4922766;28;20215;-62
2022/03/31 03:48:20;;;;;;;19.73;16.53;;;;;;;;;;4923409;28;20196;-61
2022/03/31 03:50:46;;;;;;;22.73;16.23;;;;;;;;;;4926774;28;20282;-62
2022/03/31 03:53:12;;;;;;;20.60;16.77;;;;;;;;;;4924044;28;20207;-61
2022/03/31 03:55:38;;;;;;;22.47;17.17;;;;;;;;;;4917586;28;20229;-60
2022/03/31 03:58:04;;;;;;;21.37;15.67;;;;;;;;;;4912038;28;20196;-61
2022/03/31 04:00:30;;;;;;;24.00;17.20;;;;;;;;;;4912637;28;20207;-61
2022/03/31 04:02:56;;;;;;;22.63;17.30;;;;;;;;;;4904168;28;20196;-61
2022/03/31 04:05:22;;;;;;;21.07;16.57;;;;;;;;;;4906520;28;20661;-61
2022/03/31 04:07:48;;;;;;;21.47;16.10;;;;;;;;;;4914637;28;20239;-62
2022/03/31 04:10:14;;;;;;;23.70;18.23;;;;;;;;;;4907345;28;20881;-59
2022/03/31 04:12:40;;;;;;;28.17;17.53;;;;;;;;;;4920913;28;20199;-61
2022/03/31 04:15:06;;;;;;;20.60;17.03;;;;;;;;;;4921059;28;20223;-61
2022/03/31 04:17:33;;;;;;;21.23;17.50;;;;;;;;;;4894918;28;20576;-61
2022/03/31 04:19:58;;;;;;;22.20;16.73;;;;;;;;;;4902793;28;20206;-61
2022/03/31 04:22:25;;;;;;;21.33;16.63;;;;;;;;;;4895887;28;20203;-61
2022/03/31 04:24:50;;;;;;;24.13;17.43;;;;;;;;;;4904150;28;20258;-61
2022/03/31 04:27:16;;;;;;;23.07;16.90;;;;;;;;;;4912876;28;20196;-61
2022/03/31 04:29:42;;;;;;;26.03;17.83;;;;;;;;;;4925135;28;20661;-61
2022/03/31 04:32:09;;;;;;;22.20;17.10;;;;;;;;;;4920889;28;20207;-61
2022/03/31 04:34:35;;;;;;;23.30;16.93;;;;;;;;;;4919077;28;20219;-62
2022/03/31 04:37:01;;;;;;;21.63;16.57;;;;;;;;;;4914310;28;20235;-61
2022/03/31 04:39:27;;;;;;;23.83;18.53;;;;;;;;;;4922203;28;20274;-62
2022/03/31 04:41:53;;;;;;;27.03;18.60;;;;;;;;;;4921286;28;20275;-61
2022/03/31 04:44:19;;;;;;;24.07;17.63;;;;;;;;;;4918094;28;20335;-60
2022/03/31 04:46:45;;;;;;;25.23;18.70;;;;;;;;;;4901103;28;20196;-62
2022/03/31 04:49:11;;;;;;;24.23;18.30;;;;;;;;;;4918897;28;20810;-61
2022/03/31 04:51:37;;;;;;;21.17;17.23;;;;;;;;;;4928841;28;20203;-62
2022/03/31 04:54:03;;;;;;;25.00;18.57;;;;;;;;;;4922317;28;20218;-61
2022/03/31 04:56:29;;;;;;;24.10;17.63;;;;;;;;;;4924711;28;20249;-62
2022/03/31 04:58:55;;;;;;;24.37;18.13;;;;;;;;;;4913554;28;20958;-62
2022/03/31 05:01:23;;;;;;;27.03;18.87;;;;;;;;;;4916415;28;20187;-62
2022/03/31 05:03:49;;;;;;;23.50;18.57;;;;;;;;;;4913690;28;20223;-61
2022/03/31 05:06:15;;;;;;;24.47;17.93;;;;;;;;;;4918236;28;20222;-61
2022/03/31 05:08:41;;;;;;;23.07;18.40;;;;;;;;;;4906487;28;20239;-61
2022/03/31 05:11:07;;;;;;;22.33;18.57;;;;;;;;;;4903167;28;20433;-61
2022/03/31 05:13:33;;;;;;;27.23;18.73;;;;;;;;;;4908116;28;20588;-61
2022/03/31 05:15:59;;;;;;;21.70;17.93;;;;;;;;;;4899349;28;20704;-61
2022/03/31 05:18:25;;;;;;;28.20;17.60;;;;;;;;;;4915325;28;20464;-61
2022/03/31 05:20:51;;;;;;;25.73;18.97;;;;;;;;;;4918742;28;20196;-61
2022/03/31 05:23:17;;;;;;;23.50;18.00;;;;;;;;;;4932253;28;20243;-60
2022/03/31 05:25:44;;;;;;;21.80;17.90;;;;;;;;;;4933687;28;20318;-61
2022/03/31 05:28:11;;;;;;;20.43;16.93;;;;;;;;;;4931521;28;20279;-61
2022/03/31 05:30:37;;;;;;;26.73;17.57;;;;;;;;;;4931903;28;20195;-61
2022/03/31 05:33:03;;;;;;;22.30;17.63;;;;;;;;;;4932529;28;20195;-61
2022/03/31 05:35:29;;;;;;;25.63;17.37;;;;;;;;;;4937382;28;20195;-61
2022/03/31 05:37:55;;;;;;;28.17;17.70;;;;;;;;;;4926053;28;20222;-60
2022/03/31 05:40:22;;;;;;;24.37;16.63;;;;;;;;;;4926031;28;20728;-61
2022/03/31 05:42:48;;;;;;;26.07;18.50;;;;;;;;;;4927064;28;20204;-61
2022/03/31 05:45:14;;;;;;;24.73;17.73;;;;;;;;;;4919494;28;20216;-61
2022/03/31 05:47:40;;;;;;;22.07;17.37;;;;;;;;;;4922509;28;20748;-62
2022/03/31 05:50:08;;;;;;;26.70;17.20;;;;;;;;;;4924538;28;21132;-61
2022/03/31 05:52:34;;;;;;;22.53;17.33;;;;;;;;;;4924275;28;20197;-61
2022/03/31 05:55:00;;;;;;;25.63;18.73;;;;;;;;;;4917715;28;20254;-61
2022/03/31 05:57:26;;;;;;;25.60;17.50;;;;;;;;;;4922605;28;20673;-61
2022/03/31 05:59:52;;;;;;;27.17;18.43;;;;;;;;;;4931904;28;20290;-61
2022/03/31 06:02:18;;;;;;;24.90;17.83;;;;;;;;;;4935133;28;20631;-61
2022/03/31 06:04:44;;;;;;;24.73;19.13;;;;;;;;;;4933375;28;20251;-62
2022/03/31 06:07:11;;;;;;;22.60;16.93;;;;;;;;;;4933277;28;20267;-61
2022/03/31 06:09:37;;;;;;;22.73;17.77;;;;;;;;;;4932380;28;20192;-62
2022/03/31 06:12:03;;;;;;;23.67;18.10;;;;;;;;;;4926707;28;20543;-62
2022/03/31 06:14:29;;;;;;;24.17;17.60;;;;;;;;;;4928546;28;20196;-61
2022/03/31 06:16:55;;;;;;;23.70;17.73;;;;;;;;;;4927295;28;20642;-60
2022/03/31 06:19:21;;;;;;;23.60;17.10;;;;;;;;;;4926794;28;20195;-61
2022/03/31 06:21:46;;;;;;;20.47;16.07;;;;;;;;;;4921697;28;20328;-61
2022/03/31 06:24:12;;;;;;;25.27;16.73;;;;;;;;;;4925252;28;20219;-61
2022/03/31 06:26:38;;;;;;;21.73;17.33;;;;;;;;;;4928957;28;20265;-62
2022/03/31 06:29:06;;;;;;;24.90;16.33;;;;;;;;;;4934973;28;20191;-62
2022/03/31 06:31:32;;;;;;;25.07;17.53;;;;;;;;;;4939108;28;20243;-62
2022/03/31 06:33:58;;;;;;;21.80;15.97;;;;;;;;;;4935341;28;21327;-61
2022/03/31 06:36:24;;;;;;;21.07;16.43;;;;;;;;;;4932415;28;20243;-61
2022/03/31 06:38:49;;;;;;;20.77;15.83;;;;;;;;;;4929858;28;20202;-62
2022/03/31 06:41:17;;;;;;;22.10;16.73;;;;;;;;;;4932325;28;20562;-62
2022/03/31 06:43:44;;;;;;;21.13;16.37;;;;;;;;;;4930335;28;20211;-62
2022/03/31 06:46:11;;;;;;;21.00;16.03;;;;;;;;;;4922026;28;20275;-61
2022/03/31 06:48:37;;;;;;;20.07;15.60;;;;;;;;;;4924417;28;20192;-62
2022/03/31 06:51:04;;;;;;;21.27;15.27;;;;;;;;;;4925811;28;20191;-62
2022/03/31 06:53:30;;;;;;;18.03;15.27;;;;;;;;;;4923693;28;20208;-61
2022/03/31 06:55:56;;;;;;;19.27;15.07;;;;;;;;;;4924210;28;20238;-62
2022/03/31 06:58:25;;;;;;;16.33;13.80;;;;;;;;;;4927032;28;20855;-61
2022/03/31 07:00:51;;;;;;;17.30;14.23;;;;;;;;;;4928069;28;20403;-61
2022/03/31 07:03:17;;;;;;;17.73;14.53;;;;;;;;;;4923939;28;20713;-62
2022/03/31 07:05:43;;;;;;;18.27;14.47;;;;;;;;;;4925943;28;20215;-62
2022/03/31 07:08:09;;;;;;;20.80;15.20;;;;;;;;;;4928507;28;20246;-61
2022/03/31 07:10:35;;;;;;;20.30;14.63;;;;;;;;;;4932989;28;20232;-61
2022/03/31 07:13:01;;;;;;;17.67;14.40;;;;;;;;;;4933006;28;20268;-62
2022/03/31 07:15:27;;;;;;;18.40;13.90;;;;;;;;;;4935384;28;20195;-61
2022/03/31 07:17:54;;;;;;;17.10;13.57;;;;;;;;;;4932688;28;20200;-62
2022/03/31 07:20:21;;;;;;;17.50;14.30;;;;;;;;;;4931881;28;20692;-62
2022/03/31 07:22:47;;;;;;;18.33;13.70;;;;;;;;;;4929255;28;20403;-62
2022/03/31 07:25:13;;;;;;;15.27;13.20;;;;;;;;;;4926810;28;20216;-62
2022/03/31 07:27:39;;;;;;;18.77;14.43;;;;;;;;;;4932689;28;20189;-62
2022/03/31 07:30:05;;;;;;;20.00;14.40;;;;;;;;;;4937730;28;20197;-61
2022/03/31 07:32:32;;;;;;;18.33;14.13;;;;;;;;;;4925012;28;21293;-61
2022/03/31 07:34:58;;;;;;;22.27;14.53;;;;;;;;;;4919477;28;20271;-62
2022/03/31 07:37:24;;;;;;;18.70;14.50;;;;;;;;;;4920105;28;20203;-61
2022/03/31 07:39:50;;;;;;;20.20;13.90;;;;;;;;;;4919389;28;20232;-62
2022/03/31 07:42:16;;;;;;;20.20;13.63;;;;;;;;;;4919286;28;20273;-62
2022/03/31 07:44:42;;;;;;;18.80;13.80;;;;;;;;;;4920947;28;20676;-62
2022/03/31 07:47:08;;;;;;;18.87;13.80;;;;;;;;;;4935066;28;20672;-62
2022/03/31 07:49:34;;;;;;;19.17;14.70;;;;;;;;;;4935298;28;20211;-62
2022/03/31 07:52:00;;;;;;;21.03;14.03;;;;;;;;;;4928470;28;20283;-62
2022/03/31 07:54:26;;;;;;;21.57;13.90;;;;;;;;;;4926471;28;20200;-62
2022/03/31 07:56:52;;;;;;;19.60;14.10;;;;;;;;;;4913408;28;20252;-62
2022/03/31 07:59:21;;;;;;;19.40;14.83;;;;;;;;;;4917440;28;20200;-61
2022/03/31 08:01:47;;;;;;;19.70;14.90;;;;;;;;;;4919421;28;20200;-60
2022/03/31 08:04:14;;;;;;;17.70;13.57;;;;;;;;;;4909384;28;20219;-62
2022/03/31 08:06:40;;;;;;;20.33;14.57;;;;;;;;;;4914454;28;20239;-62
2022/03/31 08:09:07;;;;;;;19.43;14.73;;;;;;;;;;4915547;28;20239;-62
2022/03/31 08:11:33;;;;;;;19.93;14.27;;;;;;;;;;4916336;28;20203;-62
2022/03/31 08:13:59;;;;;;;22.70;14.23;;;;;;;;;;4913692;28;20199;-61
2022/03/31 08:16:25;;;;;;;20.17;14.53;;;;;;;;;;4920761;28;20253;-61
2022/03/31 08:18:51;;;;;;;17.73;13.93;;;;;;;;;;4922454;28;20215;-62
2022/03/31 08:21:17;;;;;;;17.13;13.80;;;;;;;;;;4921931;28;21220;-61
2022/03/31 08:23:43;;;;;;;16.93;13.53;;;;;;;;;;4934920;28;20312;-62
2022/03/31 08:26:09;;;;;;;16.40;13.73;;;;;;;;;;4937206;28;20227;-61
2022/03/31 08:28:36;;;;;;;17.63;14.43;;;;;;;;;;4932085;28;21124;-61
2022/03/31 08:31:02;;;;;;;17.27;12.80;;;;;;;;;;4932990;28;20194;-62
2022/03/31 08:33:28;;;;;;;17.00;13.50;;;;;;;;;;4930503;28;20188;-62
2022/03/31 08:35:54;;;;;;;15.70;13.17;;;;;;;;;;4929907;28;20287;-62
2022/03/31 08:38:20;;;;;;;16.27;12.80;;;;;;;;;;4932486;28;20206;-61
2022/03/31 08:40:46;;;;;;;16.60;12.47;;;;;;;;;;4934374;28;20567;-61
2022/03/31 08:43:12;;;;;;;14.97;12.57;;;;;;;;;;4928224;28;20196;-62
2022/03/31 08:45:38;;;;;;;15.80;13.20;;;;;;;;;;4917304;28;20208;-60
2022/03/31 08:48:04;;;;;;;15.23;13.17;;;;;;;;;;4921220;28;20219;-62
2022/03/31 08:50:30;;;;;;;16.90;12.73;;;;;;;;;;4920264;28;20204;-62
2022/03/31 08:52:56;;;;;;;16.17;12.87;;;;;;;;;;4922039;28;20200;-61
2022/03/31 08:55:22;;;;;;;16.97;13.00;;;;;;;;;;4922897;28;21182;-62
2022/03/31 08:57:49;;;;;;;16.77;12.47;;;;;;;;;;4930880;28;20226;-62
2022/03/31 09:00:15;;;;;;;16.07;12.80;;;;;;;;;;4935809;28;20191;-61
2022/03/31 09:02:52;;;;;;;16.70;13.43;;;;;;;;;;4934331;28;20298;-62
2022/03/31 09:05:18;;;;;;;15.17;12.60;;;;;;;;;;4927358;28;20868;-62
2022/03/31 09:08:00;;;;;;;16.67;13.47;;;;;;;;;;4917408;28;20327;-61
2022/03/31 09:10:27;;;;;;;17.20;12.73;;;;;;;;;;4917752;28;20242;-61
2022/03/31 09:12:53;;;;;;;19.27;13.33;;;;;;;;;;4917923;28;20632;-62
2022/03/31 09:15:19;;;;;;;14.33;12.30;;;;;;;;;;4917275;28;20803;-62
2022/03/31 09:17:44;;;;;;;17.40;13.17;;;;;;;;;;4925047;28;20219;-62
2022/03/31 09:20:10;;;;;;;19.17;12.80;;;;;;;;;;4920058;28;20192;-61
2022/03/31 09:22:49;;;;;;;14.87;12.77;;;;;;;;;;4915699;28;20203;-62
2022/03/31 09:25:27;;;;;;;17.50;13.50;;;;;;;;;;4919103;28;20219;-62
2022/03/31 09:27:53;;;;;;;14.13;11.67;;;;;;;;;;4918058;28;20196;-62
2022/03/31 09:30:19;;;;;;;17.10;12.97;;;;;;;;;;4931064;28;20649;-61
2022/03/31 09:32:46;;;;;;;17.67;12.57;;;;;;;;;;4929099;28;20853;-62
2022/03/31 09:35:15;;;;;;;16.47;12.50;;;;;;;;;;4928176;28;20196;-61
2022/03/31 09:37:41;;;;;;;14.90;12.43;;;;;;;;;;4925831;28;20673;-62
2022/03/31 09:40:07;;;;;;;15.30;12.63;;;;;;;;;;4934774;28;20248;-61
2022/03/31 09:42:33;;;;;;;16.07;12.27;;;;;;;;;;4929254;28;20672;-61
2022/03/31 09:44:59;;;;;;;16.17;12.37;;;;;;;;;;4930087;28;20208;-62
2022/03/31 09:47:26;;;;;;;16.23;12.67;;;;;;;;;;4915580;28;20775;-62
2022/03/31 09:49:56;;;;;;;15.80;12.87;;;;;;;;;;4919677;28;20192;-62
2022/03/31 09:52:22;;;;;;;15.27;12.50;;;;;;;;;;4919938;28;20187;-61
2022/03/31 09:54:51;;;;;;;14.47;12.30;;;;;;;;;;4920126;28;20204;-61
2022/03/31 09:57:20;;;;;;;17.33;13.37;;;;;;;;;;4915028;28;20200;-61
2022/03/31 09:59:46;;;;;;;15.10;11.97;;;;;;;;;;4916644;28;20206;-62
2022/03/31 10:02:12;;;;;;;16.57;12.67;;;;;;;;;;4927760;28;20199;-62
2022/03/31 10:04:39;;;;;;;17.97;13.40;;;;;;;;;;4912873;28;20219;-61
2022/03/31 10:07:05;;;;;;;14.47;12.10;;;;;;;;;;4918187;28;20825;-62
2022/03/31 10:09:32;;;;;;;16.67;12.70;;;;;;;;;;4921912;28;20219;-62
2022/03/31 10:12:03;;;;;;;15.63;12.70;;;;;;;;;;4930053;28;20191;-62
2022/03/31 10:14:48;;;;;;;16.77;12.97;;;;;;;;;;4934740;28;20715;-63
2022/03/31 10:17:15;;;;;;;16.90;13.07;;;;;;;;;;4932480;28;20209;-62
2022/03/31 10:19:42;;;;;;;17.33;12.83;;;;;;;;;;4919808;28;20231;-62
2022/03/31 10:25:15;;;;;;;16.80;13.23;;;;;;;;;;4918441;28;20277;-61
2022/03/31 10:27:45;;;;;;;13.90;11.90;;;;;;;;;;4929100;28;20565;-62
2022/03/31 10:30:12;;;;;;;14.90;11.80;;;;;;;;;;4934291;28;20198;-63
2022/03/31 10:32:38;;;;;;;15.63;12.87;;;;;;;;;;4934373;28;20292;-63
2022/03/31 10:35:04;;;;;;;15.57;12.77;;;;;;;;;;4923728;28;20195;-63
2022/03/31 10:37:32;;;;;;;17.43;12.73;;;;;;;;;;4932437;28;20849;-64
2022/03/31 10:39:58;;;;;;;15.70;13.33;;;;;;;;;;4930285;28;20211;-63
2022/03/31 10:42:24;;;;;;;14.77;12.37;;;;;;;;;;4934752;28;20196;-63
2022/03/31 10:45:01;;;;;;;18.57;13.67;;;;;;;;;;4922129;28;20310;-63
2022/03/31 10:47:31;;;;;;;15.77;13.20;;;;;;;;;;4935110;28;20192;-63
2022/03/31 10:49:57;;;;;;;14.23;12.17;;;;;;;;;;4933399;28;20192;-64
2022/03/31 10:52:23;;;;;;;15.07;12.00;;;;;;;;;;4934700;28;20191;-64
2022/03/31 10:54:50;;;;;;;15.73;12.27;;;;;;;;;;4932182;28;20196;-63
2022/03/31 10:57:17;;;;;;;17.93;13.30;;;;;;;;;;4939525;28;20196;-63
2022/03/31 10:59:44;;;;;;;15.87;12.73;;;;;;;;;;4931542;28;20614;-62
2022/03/31 11:02:12;;;;;;;16.53;13.37;;;;;;;;;;4920432;28;20233;-62
2022/03/31 11:04:42;;;;;;;17.73;13.17;;;;;;;;;;4926201;28;20274;-62
2022/03/31 11:07:13;;;;;;;15.30;13.00;;;;;;;;;;4925905;28;20207;-62
2022/03/31 11:09:38;;;;;;;18.37;13.47;;;;;;;;;;4926893;28;20203;-62
2022/03/31 11:12:05;;;;;;;17.27;12.63;;;;;;;;;;4922051;28;20238;-61
2022/03/31 11:14:31;;;;;;;17.17;13.17;;;;;;;;;;4923610;28;21101;-62
2022/03/31 11:16:57;;;;;;;15.47;12.90;;;;;;;;;;4932423;28;20203;-62
2022/03/31 11:19:23;;;;;;;14.03;11.97;;;;;;;;;;4929541;28;20230;-62
2022/03/31 11:21:49;;;;;;;37.10;12.77;;;;;;;;;;4921139;28;20200;-64
2022/03/31 11:24:15;;;;;;;11.07;9.63;;;;;;;;;;4916120;28;20216;-62
2022/03/31 11:26:44;;;;;;;15.17;9.33;;;;;;;;;;4920286;28;20195;-63
2022/03/31 11:29:14;;;;;;;11.43;8.83;;;;;;;;;;4920532;28;20188;-63
2022/03/31 11:31:44;;;;;;;15.70;10.03;;;;;;;;;;4913091;28;20291;-63
2022/03/31 11:34:22;;;;;;;15.37;9.60;;;;;;;;;;4915231;28;20196;-61
2022/03/31 11:36:48;;;;;;;11.03;9.50;;;;;;;;;;4925158;28;20211;-63
2022/03/31 11:39:14;;;;;;;12.47;10.50;;;;;;;;;;4908974;28;20199;-63
2022/03/31 11:41:40;;;;;;;11.73;10.23;;;;;;;;;;4915974;28;20616;-63
2022/03/31 11:44:07;;;;;;;14.03;10.57;;;;;;;;;;4913907;28;20638;-63
2022/03/31 11:46:40;;;;;;;13.43;10.23;;;;;;;;;;4928457;28;20665;-63
2022/03/31 11:49:19;;;;;;;13.27;11.23;;;;;;;;;;4924397;28;20192;-63
2022/03/31 11:51:49;;;;;;;13.30;10.97;;;;;;;;;;4931106;28;20335;-63
2022/03/31 11:54:15;;;;;;;14.57;11.70;;;;;;;;;;4932110;28;20191;-63
2022/03/31 11:56:41;;;;;;;13.03;11.53;;;;;;;;;;4927601;28;20203;-62
2022/03/31 11:59:07;;;;;;;12.77;11.33;;;;;;;;;;4917079;28;20200;-63
2022/03/31 12:01:34;;;;;;;12.17;10.80;;;;;;;;;;4926854;28;20566;-62
2022/03/31 12:04:00;;;;;;;14.70;11.13;;;;;;;;;;4930044;28;20220;-63
2022/03/31 12:06:26;;;;;;;14.80;11.30;;;;;;;;;;4929447;28;20231;-63
2022/03/31 12:08:55;;;;;;;12.70;11.27;;;;;;;;;;4926322;28;20298;-63
2022/03/31 12:11:21;;;;;;;14.10;12.23;;;;;;;;;;4931277;28;20207;-63
2022/03/31 12:13:51;;;;;;;14.70;12.47;;;;;;;;;;4932945;28;20653;-63
2022/03/31 12:16:17;;;;;;;16.27;12.83;;;;;;;;;;4920912;28;20188;-63
2022/03/31 12:18:43;;;;;;;14.53;12.33;;;;;;;;;;4903624;28;20797;-63
2022/03/31 12:21:10;;;;;;;16.63;12.73;;;;;;;;;;4922607;28;20196;-61
2022/03/31 12:23:43;;;;;;;14.53;12.17;;;;;;;;;;4929897;28;20201;-64
2022/03/31 12:26:13;;;;;;;13.37;11.80;;;;;;;;;;4926843;28;20192;-63
2022/03/31 12:28:42;;;;;;;14.97;12.53;;;;;;;;;;4928085;28;20697;-63
2022/03/31 12:31:09;;;;;;;14.07;12.47;;;;;;;;;;4921735;28;20196;-62
2022/03/31 12:33:35;;;;;;;13.30;11.50;;;;;;;;;;4919558;28;20192;-64
2022/03/31 12:36:05;;;;;;;13.67;11.63;;;;;;;;;;4921744;28;20195;-63
2022/03/31 12:38:42;;;;;;;13.67;11.50;;;;;;;;;;4927929;28;20271;-63
2022/03/31 12:41:09;;;;;;;12.60;11.17;;;;;;;;;;4917052;28;20184;-63
2022/03/31 12:43:35;;;;;;;12.77;11.43;;;;;;;;;;4908978;28;20200;-63
2022/03/31 12:46:11;;;;;;;12.60;11.30;;;;;;;;;;4929343;28;20191;-63
2022/03/31 12:48:37;;;;;;;12.27;10.97;;;;;;;;;;4909513;28;20191;-64
2022/03/31 12:51:03;;;;;;;13.60;12.20;;;;;;;;;;4923174;28;21043;-63
2022/03/31 12:53:41;;;;;;;13.80;12.40;;;;;;;;;;4928946;28;20194;-63
2022/03/31 12:56:07;;;;;;;16.17;13.57;;;;;;;;;;4924578;28;20307;-63
2022/03/31 12:58:37;;;;;;;18.07;14.03;;;;;;;;;;4922653;28;20665;-62
2022/03/31 13:01:03;;;;;;;15.77;13.83;;;;;;;;;;4913748;28;20215;-63
2022/03/31 13:03:28;;;;;;;16.57;14.20;;;;;;;;;;4913729;28;20192;-63
2022/03/31 13:05:54;;;;;;;15.80;14.20;;;;;;;;;;4922908;28;20311;-64
2022/03/31 13:08:20;;;;;;;17.43;14.27;;;;;;;;;;4928746;28;20274;-63
2022/03/31 13:10:46;;;;;;;16.70;14.30;;;;;;;;;;4921833;28;20323;-63
2022/03/31 13:13:12;;;;;;;16.07;14.07;;;;;;;;;;4908185;28;20718;-64
2022/03/31 13:15:41;;;;;;;19.47;15.47;;;;;;;;;;4913998;28;21106;-64
2022/03/31 13:18:08;;;;;;;16.50;13.60;;;;;;;;;;4922096;28;20230;-63
2022/03/31 13:20:35;;;;;;;16.97;14.30;;;;;;;;;;4916757;28;20732;-62
2022/03/31 13:23:01;;;;;;;14.50;12.90;;;;;;;;;;4916957;28;20196;-62
2022/03/31 13:25:27;;;;;;;16.53;14.63;;;;;;;;;;4913236;28;20250;-62
2022/03/31 13:27:53;;;;;;;15.07;13.47;;;;;;;;;;4925461;28;20193;-61
2022/03/31 13:30:19;;;;;;;14.87;13.03;;;;;;;;;;4925608;28;20187;-63
2022/03/31 13:32:45;;;;;;;14.57;13.07;;;;;;;;;;4907793;28;20715;-62
2022/03/31 13:35:11;;;;;;;14.40;12.83;;;;;;;;;;4914674;28;20214;-62
2022/03/31 13:37:37;;;;;;;13.90;12.50;;;;;;;;;;4923104;28;20195;-62
2022/03/31 13:40:07;;;;;;;13.73;12.10;;;;;;;;;;4918229;28;20203;-61
2022/03/31 13:42:35;;;;;;;13.40;11.97;;;;;;;;;;4906178;28;20206;-63
2022/03/31 13:45:01;;;;;;;14.07;12.53;;;;;;;;;;4909423;28;20235;-62
2022/03/31 13:47:27;;;;;;;14.23;12.73;;;;;;;;;;4906092;28;20192;-62
2022/03/31 13:49:53;;;;;;;13.53;12.07;;;;;;;;;;4904710;28;20198;-62
2022/03/31 13:52:19;;;;;;;13.27;11.60;;;;;;;;;;4907175;28;20247;-62
2022/03/31 13:54:45;;;;;;;13.83;12.43;;;;;;;;;;4906680;28;20509;-62
2022/03/31 14:02:40;;;;;;;13.23;11.03;;;;;;;;;;4919281;28;20199;-62
2022/03/31 14:05:07;;;;;;;13.10;11.80;;;;;;;;;;4924741;28;20287;-61
2022/03/31 14:07:34;;;;;;;13.07;11.67;;;;;;;;;;4919912;28;20309;-62
2022/03/31 14:10:00;;;;;;;11.90;10.70;;;;;;;;;;4922112;28;20187;-62
2022/03/31 14:12:26;;;;;;;12.67;11.13;;;;;;;;;;4920996;28;20550;-60
2022/03/31 14:14:52;;;;;;;13.10;11.70;;;;;;;;;;4918495;28;20200;-62
2022/03/31 14:17:20;;;;;;;13.20;11.80;;;;;;;;;;4910433;28;20207;-62
2022/03/31 14:19:46;;;;;;;13.33;11.93;;;;;;;;;;4909930;28;20203;-60
2022/03/31 14:22:12;;;;;;;13.93;11.13;;;;;;;;;;4917451;28;20684;-61
2022/03/31 14:24:38;;;;;;;15.67;11.33;;;;;;;;;;4921472;28;20213;-62
2022/03/31 14:27:04;;;;;;;12.47;11.13;;;;;;;;;;4909918;28;20204;-62
2022/03/31 14:29:31;;;;;;;12.43;10.83;;;;;;;;;;4908605;28;20214;-61
2022/03/31 14:31:57;;;;;;;12.73;11.43;;;;;;;;;;4912985;28;20571;-62
2022/03/31 14:34:23;;;;;;;11.83;10.30;;;;;;;;;;4920853;28;21788;-62
2022/03/31 14:36:50;;;;;;;12.13;10.77;;;;;;;;;;4925307;28;20196;-62
2022/03/31 14:39:16;;;;;;;12.53;10.37;;;;;;;;;;4924785;28;20856;-62
2022/03/31 14:41:44;;;;;;;12.70;10.37;;;;;;;;;;4904777;28;20207;-62
2022/03/31 14:44:10;;;;;;;13.10;10.73;;;;;;;;;;4899318;28;20262;-61